createdAt,value
2019-01-08T00:01:47.276Z,34.5
2019-01-08T00:06:52.417Z,31.5
2019-01-08T00:11:58.200Z,33.7
2019-01-08T00:17:03.574Z,32.8
2019-01-08T00:22:08.699Z,32.1
2019-01-08T00:27:14.167Z,31.2
2019-01-08T00:32:17.924Z,30.8
2019-01-08T00:37:23.650Z,30.9
2019-01-08T00:42:28.530Z,30.2
2019-01-08T00:47:33.684Z,28.8
2019-01-08T00:52:38.496Z,28.7
2019-01-08T00:57:43.914Z,28.7
2019-01-08T01:02:48.976Z,27.6
2019-01-08T01:07:53.960Z,29.7
2019-01-08T01:12:58.961Z,27.2
2019-01-08T01:18:04.725Z,27.3
2019-01-08T01:23:09.764Z,27.1
2019-01-08T01:28:15.054Z,27.3
2019-01-08T01:33:20.027Z,25.4
2019-01-08T01:38:23.479Z,25.3
2019-01-08T01:43:28.267Z,24.8
2019-01-08T01:48:33.895Z,23.9
2019-01-08T01:53:38.856Z,24.9
2019-01-08T01:58:44.706Z,25.3
2019-01-08T02:03:49.811Z,22.5
2019-01-08T02:08:55.097Z,23.8
2019-01-08T02:14:00.020Z,23.2
2019-01-08T02:19:05.504Z,23.7
2019-01-08T02:24:10.689Z,23.6
2019-01-08T02:29:16.564Z,21.8
2019-01-08T02:34:22.221Z,22.7
2019-01-08T02:39:27.983Z,20.9
2019-01-08T02:44:33.574Z,20.5
2019-01-08T02:49:38.886Z,21.3
2019-01-08T02:54:42.896Z,20.4
2019-01-08T02:59:48.866Z,20.7
2019-01-08T03:04:54.196Z,21.6
2019-01-08T03:10:00.050Z,19.5
2019-01-08T03:15:05.767Z,20.3
2019-01-08T03:20:11.801Z,18.7
2019-01-08T03:25:16.882Z,19.4
2019-01-08T03:30:21.942Z,20
2019-01-08T03:35:27.336Z,19.6
2019-01-08T03:40:32.300Z,19.8
2019-01-08T03:45:38.279Z,17.5
2019-01-08T03:50:43.203Z,17.6
2019-01-08T03:55:48.704Z,18.5
2019-01-08T04:00:55.019Z,17.1
2019-01-08T04:06:00.044Z,18.1
2019-01-08T04:11:04.972Z,18.6
2019-01-08T04:16:10.687Z,17.7
2019-01-08T04:21:16.831Z,17.3
2019-01-08T04:26:22.408Z,16.8
2019-01-08T04:31:27.421Z,17.5
2019-01-08T04:36:32.581Z,16.3
2019-01-08T04:41:38.711Z,17
2019-01-08T04:46:44.278Z,15.6
2019-01-08T04:51:48.702Z,14.4
2019-01-08T04:56:54.201Z,14.4
2019-01-08T05:01:59.198Z,14.3
2019-01-08T05:07:04.770Z,14.5
2019-01-08T05:12:09.709Z,13.9
2019-01-08T05:17:15.420Z,13.6
2019-01-08T05:22:20.872Z,16.2
2019-01-08T05:27:26.550Z,14
2019-01-08T05:32:30.452Z,13.4
2019-01-08T05:37:35.313Z,15.2
2019-01-08T05:43:36.028Z,14.7
2019-01-08T05:48:41.852Z,16.9
2019-01-08T05:53:46.403Z,20
2019-01-08T05:58:51.411Z,16
2019-01-08T06:03:56.410Z,16.6
2019-01-08T06:09:01.358Z,17.5
2019-01-08T06:14:06.271Z,14.4
2019-01-08T06:19:11.253Z,13
2019-01-08T06:24:16.293Z,15.2
2019-01-08T06:29:21.804Z,19.8
2019-01-08T06:34:26.822Z,14.8
2019-01-08T06:39:31.805Z,14.7
2019-01-08T06:44:36.819Z,13.1
2019-01-08T06:49:41.722Z,14.5
2019-01-08T06:54:47.074Z,13.2
2019-01-08T06:59:51.937Z,12.9
2019-01-08T07:04:56.986Z,12
2019-01-08T07:10:00.297Z,12.6
2019-01-08T07:15:05.465Z,12.1
2019-01-08T07:20:10.295Z,12
2019-01-08T07:25:15.250Z,13.1
2019-01-08T07:30:20.584Z,13.6
2019-01-08T07:35:25.635Z,15.2
2019-01-08T07:40:31.437Z,12.2
2019-01-08T07:45:36.406Z,13.8
2019-01-08T07:50:41.708Z,12.1
2019-01-08T07:55:50.280Z,13
2019-01-08T08:00:55.089Z,12.4
2019-01-08T08:06:00.668Z,13.3
2019-01-08T08:11:05.557Z,13
2019-01-08T08:16:10.714Z,13.2
2019-01-08T08:21:16.232Z,15.1
2019-01-08T08:26:21.525Z,15.7
2019-01-08T08:31:27.244Z,16.2
2019-01-08T08:36:32.290Z,15.9
2019-01-08T08:41:37.526Z,16.9
2019-01-08T08:46:44.151Z,16.9
2019-01-08T08:51:49.079Z,15.5
2019-01-08T08:56:54.019Z,16.7
2019-01-08T09:01:58.912Z,16.9
2019-01-08T09:07:04.652Z,15.2
2019-01-08T09:12:09.391Z,14
2019-01-08T09:17:15.377Z,15.4
2019-01-08T09:22:18.886Z,14.2
2019-01-08T09:27:24.714Z,14.2
2019-01-08T09:32:29.544Z,12.6
2019-01-08T09:37:34.934Z,13.5
2019-01-08T09:42:40.482Z,14
2019-01-08T09:47:47.506Z,13.3
2019-01-08T09:52:52.612Z,13.7
2019-01-08T09:57:58.476Z,13.1
2019-01-08T10:03:03.654Z,14.6
2019-01-08T10:08:04.083Z,12.2
2019-01-08T10:13:09.642Z,13.1
2019-01-08T10:18:14.720Z,12.3
2019-01-08T10:23:20.788Z,12.8
2019-01-08T10:28:26.293Z,13.4
2019-01-08T10:33:31.579Z,14.9
2019-01-08T10:38:36.849Z,15.4
2019-01-08T10:43:37.299Z,17.1
2019-01-08T10:48:42.379Z,15.6
2019-01-08T10:53:47.407Z,16.4
2019-01-08T10:58:53.064Z,17.2
2019-01-08T11:03:56.468Z,17.6
2019-01-08T11:09:01.590Z,16.3
2019-01-08T11:14:06.549Z,14.3
2019-01-08T11:19:11.677Z,14.8
2019-01-08T11:24:17.529Z,13.7
2019-01-08T11:29:22.760Z,13.8
2019-01-08T11:34:28.567Z,14.9
2019-01-08T11:39:34.221Z,14.6
2019-01-08T11:44:39.892Z,17.6
2019-01-08T11:49:45.223Z,17.4
2019-01-08T11:54:50.816Z,14.5
2019-01-08T11:59:56.029Z,17.3
2019-01-08T12:05:01.721Z,14.3
2019-01-08T12:10:07.816Z,14.8
2019-01-08T12:15:13.674Z,13.8
2019-01-08T12:20:19.545Z,13.6
2019-01-08T12:25:24.909Z,15.3
2019-01-08T12:30:30.504Z,13.9
2019-01-08T12:35:36.070Z,14.5
2019-01-08T12:40:40.790Z,13.1
2019-01-08T12:45:46.392Z,14.1
2019-01-08T12:50:51.489Z,13.6
2019-01-08T12:55:55.450Z,14.6
2019-01-08T13:01:01.677Z,16.5
2019-01-08T13:06:06.697Z,13.8
2019-01-08T13:11:12.933Z,15.9
2019-01-08T13:16:18.614Z,18.8
2019-01-08T13:21:23.555Z,19.4
2019-01-08T13:26:28.945Z,18.1
2019-01-08T13:31:33.557Z,23.7
2019-01-08T13:36:39.275Z,16.1
2019-01-08T13:41:44.648Z,17.6
2019-01-08T13:46:50.081Z,19.4
2019-01-08T13:51:55.740Z,20.7
2019-01-08T13:57:00.906Z,19.4
2019-01-08T14:02:07.009Z,22.5
2019-01-08T14:07:10.535Z,20.5
2019-01-08T14:12:17.839Z,20.8
2019-01-08T14:17:21.669Z,19.6
2019-01-08T14:22:27.773Z,17.5
2019-01-08T14:27:33.617Z,18.3
2019-01-08T14:32:40.668Z,17.6
2019-01-08T14:37:46.807Z,26
2019-01-08T14:42:51.982Z,19.6
2019-01-08T14:47:57.029Z,20.6
2019-01-08T14:53:02.663Z,23.9
2019-01-08T14:58:08.536Z,23
2019-01-08T15:03:13.777Z,23.2
2019-01-08T15:08:19.223Z,24.4
2019-01-08T15:13:25.154Z,27.1
2019-01-08T15:18:30.917Z,30.9
2019-01-08T15:23:36.893Z,32.9
2019-01-08T15:28:40.946Z,33.3
2019-01-08T15:33:46.922Z,30.9
2019-01-08T15:38:52.333Z,28.4
2019-01-08T15:43:58.369Z,28.2
2019-01-08T15:49:03.929Z,28.4
2019-01-08T15:54:09.742Z,27.6
2019-01-08T15:59:14.692Z,29.4
2019-01-08T16:04:20.543Z,26.6
2019-01-08T16:09:25.691Z,26.3
2019-01-08T16:14:31.306Z,28.4
2019-01-08T16:19:39.819Z,29.6
2019-01-08T16:24:45.164Z,37.1
2019-01-08T16:29:50.751Z,35.3
2019-01-08T16:34:56.096Z,34.5
2019-01-08T16:40:01.966Z,33.2
2019-01-08T16:45:07.983Z,27.4
2019-01-08T16:50:13.624Z,25.8
2019-01-08T16:55:18.980Z,22.6
2019-01-08T17:00:24.618Z,16.7
2019-01-08T17:05:29.746Z,16
2019-01-08T17:10:37.606Z,12.2
2019-01-08T17:15:43.731Z,16.3
2019-01-08T17:20:48.780Z,12.6
2019-01-08T17:25:54.001Z,10.8
2019-01-08T17:30:59.002Z,12
2019-01-08T17:36:04.053Z,14.6
2019-01-08T17:41:09.524Z,13.7
2019-01-08T17:46:14.725Z,15.4
2019-01-08T17:51:20.481Z,13.1
2019-01-08T17:56:26.631Z,14.1
2019-01-08T18:01:32.365Z,11.4
2019-01-08T18:06:37.977Z,11.2
2019-01-08T18:11:43.113Z,10.7
2019-01-08T18:16:47.382Z,11.3
2019-01-08T18:21:52.802Z,13.9
2019-01-08T18:26:58.041Z,14.9
2019-01-08T18:32:03.339Z,10.1
2019-01-08T18:37:12.152Z,12.8
2019-01-08T18:42:19.971Z,43.5
2019-01-08T18:47:26.440Z,41.5
2019-01-08T18:52:31.630Z,38.6
2019-01-08T18:57:37.533Z,36.7
2019-01-08T19:02:42.581Z,34.2
2019-01-08T19:07:48.002Z,30.8
2019-01-08T19:12:53.158Z,31.8
2019-01-08T19:17:58.231Z,22.5
2019-01-08T19:23:03.656Z,21.2
2019-01-08T19:28:09.189Z,14.3
2019-01-08T19:33:14.551Z,12
2019-01-08T19:38:20.733Z,11.2
2019-01-08T19:43:28.765Z,9.4
2019-01-08T19:48:34.560Z,10.1
2019-01-08T19:53:38.841Z,10.5
2019-01-08T19:58:44.870Z,10.1
2019-01-08T20:03:49.876Z,8.3
2019-01-08T20:08:55.472Z,9.6
2019-01-08T20:14:00.568Z,10.8
2019-01-08T20:19:05.686Z,8.6
2019-01-08T20:24:15.127Z,7.4
2019-01-08T20:29:21.112Z,8.9
2019-01-08T20:34:27.025Z,7.8
2019-01-08T20:39:32.262Z,9.3
2019-01-08T20:44:39.094Z,8.2
2019-01-08T20:49:44.681Z,9.3
2019-01-08T20:54:50.185Z,10.2
2019-01-08T20:59:56.405Z,11.8
2019-01-08T21:05:01.989Z,12.5
2019-01-08T21:10:07.773Z,13.9
2019-01-08T21:15:11.616Z,11.1
2019-01-08T21:20:16.740Z,14.4
2019-01-08T21:25:22.540Z,11.7
2019-01-08T21:30:28.443Z,13.4
2019-01-08T21:35:34.007Z,9.6
2019-01-08T21:40:40.167Z,15
2019-01-08T21:45:45.319Z,12
2019-01-08T21:50:49.740Z,8.1
2019-01-08T21:55:55.548Z,10.7
2019-01-08T22:01:01.121Z,9.8
2019-01-08T22:06:06.760Z,9.9
2019-01-08T22:11:12.557Z,10
2019-01-08T22:16:18.695Z,10.3
2019-01-08T22:21:24.250Z,9.2
2019-01-08T22:26:29.572Z,8.2
2019-01-08T22:31:35.192Z,8.1
2019-01-08T22:36:40.862Z,7.4
2019-01-08T22:41:47.264Z,6.5
2019-01-08T22:46:53.086Z,7.7
2019-01-08T22:52:01.399Z,6.7
2019-01-08T22:57:05.614Z,7.8
2019-01-08T23:02:10.977Z,6.9
2019-01-08T23:07:16.732Z,8.4
2019-01-08T23:12:22.460Z,7.3
2019-01-08T23:17:28.088Z,6.2
2019-01-08T23:22:34.579Z,6.1
2019-01-08T23:27:40.638Z,8
2019-01-08T23:32:46.731Z,5.7
2019-01-08T23:37:51.904Z,5.4
2019-01-08T23:42:57.786Z,6.5
2019-01-08T23:48:03.416Z,6
2019-01-08T23:53:09.498Z,5.5
2019-01-08T23:58:15.104Z,5.6
